createdAt,value
2022-10-16T00:00:51.757Z,8.25
2022-10-16T00:03:19.333Z,7.22
2022-10-16T00:05:47.462Z,6.25
2022-10-16T00:08:15.257Z,6.63
2022-10-16T00:10:44.227Z,7.00
2022-10-16T00:13:12.133Z,9.95
2022-10-16T00:15:40.097Z,7.90
2022-10-16T00:18:08.510Z,6.07
2022-10-16T00:20:37.757Z,7.47
2022-10-16T00:23:06.197Z,8.13
2022-10-16T00:25:34.615Z,5.70
2022-10-16T00:28:03.815Z,6.57
2022-10-16T00:30:31.391Z,4.75
2022-10-16T00:32:59.017Z,7.50
2022-10-16T00:35:26.682Z,3.75
2022-10-16T00:37:54.406Z,4.18
2022-10-16T00:40:22.032Z,5.93
2022-10-16T00:42:51.183Z,6.78
2022-10-16T00:45:22.692Z,4.45
2022-10-16T00:47:52.524Z,5.55
2022-10-16T00:50:26.122Z,3.33
2022-10-16T00:52:55.189Z,4.13
2022-10-16T00:55:25.487Z,5.43
2022-10-16T00:57:54.134Z,3.53
2022-10-16T01:00:25.455Z,3.95
2022-10-16T01:02:57.459Z,3.83
2022-10-16T01:05:29.718Z,7.65
2022-10-16T01:08:06.839Z,3.60
2022-10-16T01:10:40.192Z,5.13
2022-10-16T01:13:10.800Z,4.57
2022-10-16T01:15:44.400Z,5.53
2022-10-16T01:18:17.963Z,4.60
2022-10-16T01:20:48.929Z,3.55
2022-10-16T01:23:34.428Z,3.15
2022-10-16T01:26:26.841Z,3.95
2022-10-16T01:28:59.725Z,2.75
2022-10-16T01:31:31.045Z,5.38
2022-10-16T01:34:04.872Z,6.53
2022-10-16T01:36:38.567Z,3.30
2022-10-16T01:39:10.038Z,5.88
2022-10-16T01:41:42.421Z,3.42
2022-10-16T01:44:14.086Z,5.00
2022-10-16T01:46:44.895Z,4.05
2022-10-16T01:49:14.313Z,3.60
2022-10-16T01:51:44.592Z,3.33
2022-10-16T01:54:14.455Z,2.38
2022-10-16T01:56:43.028Z,4.22
2022-10-16T01:59:16.360Z,4.93
2022-10-16T02:01:48.248Z,4.10
2022-10-16T02:04:19.347Z,4.88
2022-10-16T02:06:47.192Z,3.15
2022-10-16T02:09:16.692Z,6.88
2022-10-16T02:11:44.759Z,5.15
2022-10-16T02:14:14.159Z,5.10
2022-10-16T02:16:44.423Z,6.22
2022-10-16T02:19:14.306Z,4.57
2022-10-16T02:21:46.519Z,2.72
2022-10-16T02:24:24.175Z,3.78
2022-10-16T02:26:56.630Z,5.72
2022-10-16T02:29:28.119Z,2.72
2022-10-16T02:32:00.463Z,6.53
2022-10-16T02:34:29.444Z,2.70
2022-10-16T02:36:59.235Z,13.13
2022-10-16T02:39:29.075Z,6.10
2022-10-16T02:41:56.673Z,3.55
2022-10-16T02:44:25.589Z,3.78
2022-10-16T02:46:53.404Z,6.70
2022-10-16T02:49:21.081Z,4.68
2022-10-16T02:51:48.676Z,4.60
2022-10-16T02:54:16.372Z,3.78
2022-10-16T02:56:44.065Z,2.90
2022-10-16T02:59:11.705Z,3.80
2022-10-16T03:01:40.746Z,2.90
2022-10-16T03:04:08.511Z,4.45
2022-10-16T03:06:38.389Z,3.80
2022-10-16T03:09:05.928Z,2.40
2022-10-16T03:11:33.526Z,5.07
2022-10-16T03:14:01.189Z,3.70
2022-10-16T03:16:28.771Z,2.60
2022-10-16T03:18:57.704Z,4.15
2022-10-16T03:21:25.778Z,2.63
2022-10-16T03:23:53.398Z,4.63
2022-10-16T03:26:20.994Z,3.85
2022-10-16T03:28:48.616Z,4.10
2022-10-16T03:31:16.261Z,4.68
2022-10-16T03:33:43.989Z,2.58
2022-10-16T03:36:12.931Z,2.00
2022-10-16T03:38:40.556Z,4.35
2022-10-16T03:41:08.689Z,7.38
2022-10-16T03:43:36.867Z,3.47
2022-10-16T03:46:04.599Z,3.75
2022-10-16T03:48:33.091Z,3.35
2022-10-16T03:51:00.641Z,3.70
2022-10-16T03:53:29.753Z,2.80
2022-10-16T03:55:57.313Z,4.32
2022-10-16T03:58:25.117Z,3.47
2022-10-16T04:00:53.335Z,2.80
2022-10-16T04:03:23.386Z,1.98
2022-10-16T04:05:51.393Z,3.85
2022-10-16T04:08:19.319Z,4.78
2022-10-16T04:10:48.262Z,4.20
2022-10-16T04:13:16.342Z,4.30
2022-10-16T04:15:44.362Z,3.80
2022-10-16T04:18:12.905Z,3.00
2022-10-16T04:20:40.827Z,2.83
2022-10-16T04:23:08.443Z,4.40
2022-10-16T04:25:36.060Z,2.63
2022-10-16T04:28:05.179Z,5.00
2022-10-16T04:30:34.447Z,2.88
2022-10-16T04:33:02.197Z,3.00
2022-10-16T04:35:29.750Z,4.60
2022-10-16T04:37:59.320Z,4.28
2022-10-16T04:40:26.920Z,3.60
2022-10-16T04:42:54.631Z,5.22
2022-10-16T04:45:23.550Z,6.70
2022-10-16T04:47:51.283Z,3.85
2022-10-16T04:50:18.890Z,2.75
2022-10-16T04:53:02.600Z,4.25
2022-10-16T04:55:30.550Z,6.32
2022-10-16T04:57:58.114Z,5.90
2022-10-16T05:00:27.263Z,4.57
2022-10-16T05:02:54.863Z,5.40
2022-10-16T05:05:22.652Z,4.28
2022-10-16T05:07:50.529Z,4.50
2022-10-16T05:10:18.566Z,6.70
2022-10-16T05:12:46.522Z,4.45
2022-10-16T05:15:14.383Z,3.13
2022-10-16T05:17:44.762Z,4.03
2022-10-16T05:20:12.966Z,4.93
2022-10-16T05:22:40.595Z,8.18
2022-10-16T05:25:08.770Z,4.03
2022-10-16T05:27:36.833Z,7.22
2022-10-16T05:30:07.419Z,8.00
2022-10-16T05:32:37.571Z,3.10
2022-10-16T05:35:10.141Z,6.28
2022-10-16T05:37:40.205Z,6.82
2022-10-16T05:40:09.186Z,4.63
2022-10-16T05:42:36.723Z,8.57
2022-10-16T05:45:04.820Z,5.78
2022-10-16T05:47:32.402Z,3.75
2022-10-16T05:49:59.956Z,5.13
2022-10-16T05:52:29.900Z,2.70
2022-10-16T05:54:57.580Z,4.57
2022-10-16T05:57:25.560Z,5.80
2022-10-16T05:59:53.724Z,2.60
2022-10-16T06:02:21.306Z,2.95
2022-10-16T06:04:48.866Z,7.47
2022-10-16T06:07:16.463Z,2.65
2022-10-16T06:09:45.608Z,6.72
2022-10-16T06:12:13.188Z,2.63
2022-10-16T06:14:40.917Z,3.03
2022-10-16T06:17:08.533Z,5.57
2022-10-16T06:19:36.062Z,4.50
2022-10-16T06:22:05.261Z,2.67
2022-10-16T06:24:32.826Z,3.92
2022-10-16T06:27:02.499Z,5.40
2022-10-16T06:29:30.056Z,3.47
2022-10-16T06:31:57.654Z,3.90
2022-10-16T06:34:25.464Z,5.93
2022-10-16T06:36:53.060Z,2.20
2022-10-16T06:39:20.627Z,2.72
2022-10-16T06:41:48.293Z,4.40
2022-10-16T06:44:20.400Z,2.38
2022-10-16T06:46:48.024Z,4.88
2022-10-16T06:49:22.056Z,3.90
2022-10-16T06:51:49.758Z,3.42
2022-10-16T06:54:18.779Z,4.20
2022-10-16T06:56:46.837Z,5.15
2022-10-16T06:59:14.356Z,12.52
2022-10-16T07:01:43.421Z,4.78
2022-10-16T07:04:11.011Z,6.57
2022-10-16T07:06:38.574Z,3.35
2022-10-16T07:09:07.632Z,5.85
2022-10-16T07:11:35.689Z,3.20
2022-10-16T07:14:03.471Z,5.72
2022-10-16T07:16:32.858Z,5.65
2022-10-16T07:19:03.169Z,9.65
2022-10-16T07:21:32.420Z,6.38
2022-10-16T07:24:02.217Z,4.10
2022-10-16T07:26:32.076Z,3.28
2022-10-16T07:29:00.237Z,5.70
2022-10-16T07:31:28.301Z,15.77
2022-10-16T07:33:56.401Z,6.28
2022-10-16T07:36:25.255Z,14.10
2022-10-16T07:38:55.528Z,6.75
2022-10-16T07:41:26.750Z,12.93
2022-10-16T07:43:55.739Z,10.25
2022-10-16T07:46:24.820Z,6.55
2022-10-16T07:48:52.476Z,10.52
2022-10-16T07:51:21.747Z,4.82
2022-10-16T07:53:53.601Z,15.43
2022-10-16T07:56:22.679Z,6.70
2022-10-16T07:58:51.300Z,7.00
2022-10-16T08:01:20.123Z,5.30
2022-10-16T08:03:50.941Z,6.28
2022-10-16T08:06:21.991Z,11.93
2022-10-16T08:08:54.333Z,7.72
2022-10-16T08:11:21.938Z,5.43
2022-10-16T08:13:49.542Z,8.13
2022-10-16T08:16:18.182Z,8.70
2022-10-16T08:18:45.829Z,5.57
2022-10-16T08:21:20.156Z,14.43
2022-10-16T08:23:53.027Z,10.27
2022-10-16T08:26:28.423Z,6.32
2022-10-16T08:28:57.057Z,11.10
2022-10-16T08:31:25.335Z,14.05
2022-10-16T08:33:53.539Z,6.07
2022-10-16T08:36:21.399Z,10.25
2022-10-16T08:38:51.237Z,5.47
2022-10-16T08:41:40.287Z,11.48
2022-10-16T08:44:30.029Z,9.40
2022-10-16T08:47:05.102Z,8.27
2022-10-16T08:49:33.319Z,5.13
2022-10-16T08:52:01.828Z,5.05
2022-10-16T08:54:34.836Z,4.28
2022-10-16T08:57:11.713Z,8.93
2022-10-16T08:59:39.388Z,6.05
2022-10-16T09:02:25.679Z,3.15
2022-10-16T09:05:12.109Z,10.30
2022-10-16T09:07:49.873Z,5.47
2022-10-16T09:10:31.090Z,6.40
2022-10-16T09:13:08.990Z,3.85
2022-10-16T09:15:43.447Z,5.15
2022-10-16T09:18:17.337Z,10.85
2022-10-16T09:20:51.980Z,4.75
2022-10-16T09:23:21.841Z,6.22
2022-10-16T09:25:51.103Z,6.38
2022-10-16T09:28:21.132Z,6.97
2022-10-16T09:30:50.683Z,6.70
2022-10-16T09:33:21.081Z,7.93
2022-10-16T09:35:51.824Z,4.82
2022-10-16T09:38:27.269Z,6.43
2022-10-16T09:40:59.323Z,4.88
2022-10-16T09:43:37.248Z,5.53
2022-10-16T09:46:07.461Z,5.35
2022-10-16T09:48:39.258Z,12.30
2022-10-16T09:51:18.002Z,5.25
2022-10-16T09:53:47.179Z,9.00
2022-10-16T09:56:25.660Z,3.80
2022-10-16T09:58:55.984Z,5.25
2022-10-16T10:01:27.373Z,4.10
2022-10-16T10:04:01.970Z,4.60
2022-10-16T10:06:33.138Z,3.47
2022-10-16T10:09:05.786Z,8.70
2022-10-16T10:11:42.516Z,3.53
2022-10-16T10:14:19.453Z,4.22
2022-10-16T10:16:47.582Z,2.72
2022-10-16T10:19:17.212Z,3.40
2022-10-16T10:21:45.198Z,2.67
2022-10-16T10:24:14.905Z,3.45
2022-10-16T10:26:51.238Z,2.05
2022-10-16T10:29:30.610Z,5.10
2022-10-16T10:32:09.411Z,4.38
2022-10-16T10:34:52.858Z,2.00
2022-10-16T10:37:36.297Z,3.75
2022-10-16T10:40:13.474Z,4.60
2022-10-16T10:42:50.235Z,2.70
2022-10-16T10:45:28.553Z,2.25
2022-10-16T10:48:07.170Z,4.30
2022-10-16T10:50:43.338Z,3.72
2022-10-16T10:53:31.026Z,3.88
2022-10-16T10:56:07.208Z,4.72
2022-10-16T10:59:02.836Z,3.70
2022-10-16T11:01:43.148Z,4.22
2022-10-16T11:04:38.549Z,6.43
2022-10-16T11:07:07.900Z,4.45
2022-10-16T11:09:40.409Z,1.83
2022-10-16T11:12:14.463Z,5.82
2022-10-16T11:14:48.194Z,4.05
2022-10-16T11:17:22.322Z,5.60
2022-10-16T11:19:54.314Z,4.10
2022-10-16T11:22:26.848Z,2.15
2022-10-16T11:25:01.310Z,2.75
2022-10-16T11:27:38.022Z,2.22
2022-10-16T11:30:14.381Z,4.10
2022-10-16T11:32:54.433Z,2.90
2022-10-16T11:35:26.918Z,5.97
2022-10-16T11:37:59.098Z,3.53
2022-10-16T11:40:34.347Z,3.47
2022-10-16T11:43:12.551Z,4.60
2022-10-16T11:45:44.340Z,3.05
2022-10-16T11:48:25.024Z,2.88
2022-10-16T11:50:55.921Z,3.40
2022-10-16T11:53:33.767Z,2.75
2022-10-16T11:56:01.905Z,2.72
2022-10-16T11:58:35.468Z,3.83
2022-10-16T12:01:16.874Z,3.17
2022-10-16T12:03:51.675Z,4.07
2022-10-16T12:06:35.825Z,2.38
2022-10-16T12:09:04.081Z,3.45
2022-10-16T12:11:39.051Z,6.95
2022-10-16T12:14:20.191Z,7.45
2022-10-16T12:16:57.168Z,4.38
2022-10-16T12:19:28.084Z,4.28
2022-10-16T12:21:58.666Z,2.92
2022-10-16T12:24:38.902Z,2.97
2022-10-16T12:27:08.780Z,3.65
2022-10-16T12:29:39.763Z,2.92
2022-10-16T12:32:46.671Z,3.72
2022-10-16T12:35:23.075Z,5.20
2022-10-16T12:37:51.653Z,6.63
2022-10-16T12:40:29.049Z,6.90
2022-10-16T12:42:56.936Z,3.45
2022-10-16T12:45:31.937Z,6.18
2022-10-16T12:48:00.853Z,5.45
2022-10-16T12:50:33.932Z,6.00
2022-10-16T12:53:02.312Z,4.60
2022-10-16T12:55:36.932Z,3.15
2022-10-16T12:58:33.449Z,5.78
2022-10-16T13:01:10.403Z,5.03
2022-10-16T13:04:07.104Z,4.70
2022-10-16T13:06:41.592Z,6.93
2022-10-16T13:09:30.168Z,6.32
2022-10-16T13:12:09.024Z,7.68
2022-10-16T13:14:56.974Z,8.27
2022-10-16T13:17:32.460Z,5.47
2022-10-16T13:20:08.774Z,6.53
2022-10-16T13:22:43.102Z,2.75
2022-10-16T13:25:24.541Z,6.35
2022-10-16T13:27:57.016Z,1.75
2022-10-16T13:30:30.570Z,5.05
2022-10-16T13:33:02.208Z,5.15
2022-10-16T13:35:31.568Z,6.63
2022-10-16T13:38:13.240Z,3.75
2022-10-16T13:40:51.270Z,4.90
2022-10-16T13:43:20.697Z,9.40
2022-10-16T13:45:56.422Z,4.88
2022-10-16T13:48:24.327Z,4.10
2022-10-16T13:51:03.037Z,5.32
2022-10-16T13:53:34.137Z,5.63
2022-10-16T13:56:02.231Z,5.53
2022-10-16T13:58:30.610Z,4.25
2022-10-16T14:01:00.299Z,5.93
2022-10-16T14:03:29.457Z,4.07
2022-10-16T14:05:59.795Z,2.65
2022-10-16T14:08:28.948Z,5.05
2022-10-16T14:11:00.722Z,5.55
2022-10-16T14:13:34.172Z,4.35
2022-10-16T14:16:07.703Z,6.75
2022-10-16T14:18:36.401Z,3.08
2022-10-16T14:21:08.647Z,4.15
2022-10-16T14:23:39.529Z,4.97
2022-10-16T14:26:20.946Z,5.07
2022-10-16T14:28:50.190Z,3.85
2022-10-16T14:31:28.926Z,3.33
2022-10-16T14:33:57.163Z,4.80
2022-10-16T14:36:26.826Z,3.15
2022-10-16T14:39:04.346Z,4.47
2022-10-16T14:41:42.550Z,2.33
2022-10-16T14:44:13.352Z,3.60
2022-10-16T14:46:43.664Z,4.38
2022-10-16T14:49:18.855Z,4.70
2022-10-16T14:51:46.861Z,5.22
2022-10-16T14:54:15.692Z,4.13
2022-10-16T14:56:49.735Z,4.57
2022-10-16T14:59:21.010Z,3.17
2022-10-16T15:01:49.068Z,5.65
2022-10-16T15:04:17.368Z,4.90
2022-10-16T15:06:45.225Z,2.97
2022-10-16T15:09:13.217Z,4.03
2022-10-16T15:11:41.102Z,4.18
2022-10-16T15:16:44.297Z,4.88
2022-10-16T15:19:12.284Z,6.65
2022-10-16T15:21:40.512Z,6.97
2022-10-16T15:24:16.427Z,3.13
2022-10-16T15:26:47.900Z,5.97
2022-10-16T15:29:17.388Z,4.70
2022-10-16T15:31:45.747Z,3.25
2022-10-16T15:34:14.161Z,4.10
2022-10-16T15:37:07.975Z,6.00
2022-10-16T15:39:40.470Z,7.90
2022-10-16T15:42:09.258Z,6.25
2022-10-16T15:44:38.314Z,10.27
2022-10-16T15:47:06.077Z,4.97
2022-10-16T15:49:33.846Z,10.43
2022-10-16T15:52:01.758Z,8.02
2022-10-16T15:54:29.523Z,5.80
2022-10-16T15:56:57.548Z,8.63
2022-10-16T15:59:25.386Z,5.93
2022-10-16T16:01:54.592Z,4.80
2022-10-16T16:07:10.412Z,4.70
2022-10-16T16:09:38.729Z,4.65
2022-10-16T16:12:06.492Z,3.63
2022-10-16T16:14:34.280Z,4.28
2022-10-16T16:17:04.279Z,3.97
2022-10-16T16:19:32.809Z,11.30
2022-10-16T16:22:01.102Z,6.28
2022-10-16T16:24:28.824Z,12.15
2022-10-16T16:26:56.741Z,12.88
2022-10-16T16:29:24.752Z,11.43
2022-10-16T16:31:57.977Z,7.53
2022-10-16T16:34:27.506Z,9.02
2022-10-16T16:36:55.913Z,9.32
2022-10-16T16:39:24.475Z,6.40
2022-10-16T16:41:52.458Z,5.25
2022-10-16T16:44:20.392Z,7.72
2022-10-16T16:46:48.441Z,5.22
2022-10-16T16:49:16.709Z,9.55
2022-10-16T16:51:46.055Z,10.73
2022-10-16T16:54:14.884Z,3.83
2022-10-16T16:56:44.098Z,5.72
2022-10-16T16:59:16.701Z,5.90
2022-10-16T17:01:44.565Z,12.05
2022-10-16T17:04:13.152Z,9.43
2022-10-16T17:06:41.416Z,6.85
2022-10-16T17:09:13.985Z,7.05
2022-10-16T17:11:44.068Z,5.25
2022-10-16T17:14:12.515Z,4.72
2022-10-16T17:16:44.802Z,6.68
2022-10-16T17:19:15.718Z,7.63
2022-10-16T17:21:45.539Z,10.27
2022-10-16T17:24:15.031Z,7.57
2022-10-16T17:26:48.816Z,10.30
2022-10-16T17:29:18.241Z,9.27
2022-10-16T17:31:46.512Z,8.85
2022-10-16T17:34:14.614Z,11.23
2022-10-16T17:36:47.319Z,11.98
2022-10-16T17:39:19.261Z,11.52
2022-10-16T17:41:47.838Z,11.77
2022-10-16T17:44:20.111Z,15.23
2022-10-16T17:46:49.083Z,12.77
2022-10-16T17:49:17.269Z,8.60
2022-10-16T17:51:46.470Z,8.93
2022-10-16T17:54:15.465Z,11.80
2022-10-16T17:56:45.177Z,13.15
2022-10-16T17:59:13.764Z,11.25
2022-10-16T18:01:45.508Z,9.77
2022-10-16T18:04:15.323Z,7.72
2022-10-16T18:06:45.177Z,10.55
2022-10-16T18:09:15.474Z,9.07
2022-10-16T18:11:45.662Z,8.70
2022-10-16T18:14:15.817Z,6.57
2022-10-16T18:16:44.621Z,7.47
2022-10-16T18:19:13.147Z,10.02
2022-10-16T18:21:41.482Z,7.97
2022-10-16T18:24:10.763Z,11.13
2022-10-16T18:26:38.732Z,11.77
2022-10-16T18:29:08.570Z,10.98
2022-10-16T18:31:39.095Z,8.20
2022-10-16T18:34:09.997Z,8.45
2022-10-16T18:36:39.757Z,7.93
2022-10-16T18:39:10.309Z,13.05
2022-10-16T18:41:39.669Z,9.90
2022-10-16T18:44:11.527Z,11.85
2022-10-16T18:46:46.926Z,11.40
2022-10-16T18:49:15.295Z,11.18
2022-10-16T18:51:44.241Z,9.75
2022-10-16T18:54:14.278Z,11.82
2022-10-16T18:56:43.058Z,11.63
2022-10-16T18:59:12.362Z,14.10
2022-10-16T19:01:42.612Z,10.40
2022-10-16T19:04:13.088Z,8.75
2022-10-16T19:06:44.165Z,13.70
2022-10-16T19:09:16.348Z,6.97
2022-10-16T19:11:45.045Z,9.77
2022-10-16T19:14:16.555Z,7.93
2022-10-16T19:16:44.739Z,11.18
2022-10-16T19:19:15.470Z,11.00
2022-10-16T19:21:43.801Z,15.07
2022-10-16T19:24:13.987Z,8.18
2022-10-16T19:26:42.492Z,7.63
2022-10-16T19:29:11.101Z,8.27
2022-10-16T19:31:41.118Z,10.20
2022-10-16T19:34:09.903Z,10.00
2022-10-16T19:36:40.063Z,10.35
2022-10-16T19:39:14.708Z,12.65
2022-10-16T19:41:43.017Z,12.18
2022-10-16T19:44:13.614Z,12.90
2022-10-16T19:46:46.599Z,13.95
2022-10-16T19:49:16.988Z,11.63
2022-10-16T19:51:48.841Z,12.95
2022-10-16T19:54:17.537Z,9.93
2022-10-16T19:56:45.331Z,11.63
2022-10-16T19:59:17.295Z,9.18
2022-10-16T20:01:47.253Z,13.93
2022-10-16T20:04:17.685Z,12.38
2022-10-16T20:06:46.311Z,11.07
2022-10-16T20:09:14.688Z,9.30
2022-10-16T20:11:42.769Z,12.18
2022-10-16T20:14:10.790Z,10.02
2022-10-16T20:16:40.362Z,13.45
2022-10-16T20:19:10.002Z,10.75
2022-10-16T20:21:39.186Z,8.63
2022-10-16T20:24:08.611Z,11.05
2022-10-16T20:26:40.402Z,11.77
2022-10-16T20:29:08.333Z,15.10
2022-10-16T20:31:39.785Z,11.25
2022-10-16T20:34:13.206Z,10.55
2022-10-16T20:36:43.350Z,10.45
2022-10-16T20:39:13.808Z,12.10
2022-10-16T20:41:45.493Z,13.27
2022-10-16T20:44:13.430Z,11.80
2022-10-16T20:46:41.732Z,13.27
2022-10-16T20:49:27.954Z,15.30
2022-10-16T20:51:56.704Z,12.52
2022-10-16T20:54:29.424Z,11.43
2022-10-16T20:57:01.432Z,14.13
2022-10-16T20:59:29.844Z,13.50
2022-10-16T21:01:59.919Z,11.32
2022-10-16T21:04:33.175Z,18.00
2022-10-16T21:07:02.218Z,15.07
2022-10-16T21:09:33.626Z,12.63
2022-10-16T21:12:01.644Z,12.90
2022-10-16T21:14:30.242Z,11.43
2022-10-16T21:17:01.663Z,9.90
2022-10-16T21:19:35.568Z,13.32
2022-10-16T21:22:03.624Z,13.18
2022-10-16T21:24:31.635Z,11.40
2022-10-16T21:26:59.682Z,11.65
2022-10-16T21:29:27.692Z,11.65
2022-10-16T21:31:55.519Z,13.20
2022-10-16T21:34:23.336Z,14.93
2022-10-16T21:36:52.444Z,10.85
2022-10-16T21:39:21.587Z,10.70
2022-10-16T21:41:51.242Z,10.00
2022-10-16T21:44:20.286Z,9.00
2022-10-16T21:46:49.076Z,12.05
2022-10-16T21:49:19.304Z,9.90
2022-10-16T21:51:52.877Z,10.45
2022-10-16T21:54:25.319Z,8.50
2022-10-16T21:56:53.698Z,7.70
2022-10-16T21:59:22.317Z,13.82
2022-10-16T22:01:50.447Z,11.18
2022-10-16T22:04:18.556Z,10.27
2022-10-16T22:06:46.360Z,10.25
2022-10-16T22:09:16.414Z,11.60
2022-10-16T22:11:46.141Z,12.80
2022-10-16T22:14:16.297Z,10.02
2022-10-16T22:16:45.374Z,8.85
2022-10-16T22:19:14.598Z,7.30
2022-10-16T22:21:43.603Z,10.45
2022-10-16T22:24:11.777Z,8.60
2022-10-16T22:26:43.776Z,8.05
2022-10-16T22:29:13.148Z,8.02
2022-10-16T22:31:41.439Z,10.63
2022-10-16T22:34:09.178Z,9.50
2022-10-16T22:36:36.799Z,10.40
2022-10-16T22:39:04.589Z,10.35
2022-10-16T22:41:32.577Z,10.98
2022-10-16T22:44:01.648Z,12.27
2022-10-16T22:46:31.064Z,9.57
2022-10-16T22:48:59.278Z,10.20
2022-10-16T22:51:28.340Z,8.05
2022-10-16T22:53:58.384Z,7.80
2022-10-16T22:56:26.254Z,6.97
2022-10-16T22:58:54.291Z,9.10
2022-10-16T23:01:26.807Z,11.52
2022-10-16T23:03:54.753Z,8.07
2022-10-16T23:06:22.898Z,10.30
2022-10-16T23:08:52.651Z,7.53
2022-10-16T23:11:20.611Z,13.82
2022-10-16T23:13:48.545Z,7.55
2022-10-16T23:16:18.531Z,9.35
2022-10-16T23:18:49.416Z,8.75
2022-10-16T23:21:19.042Z,8.15
2022-10-16T23:23:46.784Z,5.47
2022-10-16T23:26:16.435Z,6.70
2022-10-16T23:28:44.417Z,14.68
2022-10-16T23:31:13.665Z,6.50
2022-10-16T23:33:41.783Z,11.68
2022-10-16T23:36:13.571Z,6.15
2022-10-16T23:38:41.261Z,9.65
2022-10-16T23:41:09.259Z,8.70
2022-10-16T23:43:37.442Z,6.70
2022-10-16T23:46:05.935Z,7.30
2022-10-16T23:48:33.973Z,7.55
2022-10-16T23:51:01.696Z,10.18
2022-10-16T23:53:30.824Z,6.75
2022-10-16T23:55:58.465Z,12.70
2022-10-16T23:58:26.658Z,7.25
